Time;durP1;ratioP1;P1;durP2;ratioP2;P2;SDS_P1;SDS_P2;PMS_P1;PMS_P2;Temp;Humidity;BMP_temperature;BMP_pressure;BME280_temperature;BME280_humidity;BME280_pressure;Samples;Min_cycle;Max_cycle;Signal;HPM_P1;HPM_P2
2022/02/03 00:05:16;;;;;;;33.57;18.40;;;9.00;99.90;;;;;;5001031;28;20180;-67
2022/02/03 00:24:25;;;;;;;32.97;17.63;;;9.00;99.90;;;;;;5033512;28;20226;-67
2022/02/03 00:27:33;;;;;;;31.23;18.70;;;9.00;99.90;;;;;;5023175;28;20219;-66
2022/02/03 00:30:05;;;;;;;32.50;16.97;;;9.00;99.90;;;;;;5013508;28;20176;-67
2022/02/03 00:48:46;;;;;;;31.63;19.33;;;9.00;99.90;;;;;;4970791;28;20470;-67
2022/02/03 00:51:12;;;;;;;30.73;18.80;;;8.90;99.90;;;;;;5029712;28;20392;-67
2022/02/03 00:53:39;;;;;;;32.70;19.40;;;8.90;99.90;;;;;;5032889;28;20592;-66
2022/02/03 00:56:11;;;;;;;29.17;17.53;;;8.90;99.90;;;;;;5016200;28;20204;-67
2022/02/03 00:59:00;;;;;;;29.97;18.90;;;8.90;99.90;;;;;;5013205;28;20180;-67
2022/02/03 01:01:33;;;;;;;31.07;19.50;;;8.90;99.90;;;;;;5030286;28;20191;-67
2022/02/03 01:04:06;;;;;;;33.77;20.83;;;9.00;99.90;;;;;;5030920;28;20253;-66
2022/02/03 01:06:35;;;;;;;33.00;19.80;;;8.90;99.90;;;;;;5013181;28;20662;-67
2022/02/03 01:09:05;;;;;;;28.70;19.77;;;9.00;99.90;;;;;;5012971;28;20175;-67
2022/02/03 01:11:36;;;;;;;33.50;21.63;;;8.90;99.90;;;;;;5030392;28;20237;-67
2022/02/03 01:19:45;;;;;;;38.67;23.90;;;9.00;99.90;;;;;;5027479;28;20179;-66
2022/02/03 01:44:02;;;;;;;47.37;22.00;;;8.90;99.90;;;;;;5031085;28;20214;-67
2022/02/03 01:52:35;;;;;;;36.33;19.77;;;8.90;99.90;;;;;;5007652;28;20219;-67
2022/02/03 01:55:04;;;;;;;34.47;20.83;;;8.90;99.90;;;;;;5028743;28;20245;-67
2022/02/03 01:57:42;;;;;;;33.63;20.70;;;8.90;99.90;;;;;;5031923;28;20274;-66
2022/02/03 02:00:14;;;;;;;30.03;20.73;;;8.90;99.90;;;;;;5013101;28;20184;-67
2022/02/03 02:02:55;;;;;;;35.00;20.00;;;8.90;99.90;;;;;;5010630;28;20833;-67
2022/02/03 02:05:40;;;;;;;28.30;17.93;;;9.00;99.90;;;;;;5012563;28;20213;-67
2022/02/03 02:08:24;;;;;;;31.70;19.27;;;8.90;99.90;;;;;;5031565;28;20250;-67
2022/02/03 02:11:22;;;;;;;27.77;20.17;;;8.90;99.90;;;;;;4992670;28;20650;-67
2022/02/03 02:14:08;;;;;;;35.87;19.93;;;9.00;99.90;;;;;;5025025;28;20211;-67
2022/02/03 02:19:26;;;;;;;29.20;20.60;;;9.00;99.90;;;;;;5012402;28;20199;-67
2022/02/03 02:38:53;;;;;;;30.93;19.80;;;8.90;99.90;;;;;;5024046;28;20708;-66
2022/02/03 02:42:34;;;;;;;31.43;18.87;;;8.90;99.90;;;;;;5029927;28;20559;-66
2022/02/03 02:45:01;;;;;;;29.73;18.83;;;8.90;99.90;;;;;;5023270;28;20187;-67
2022/02/03 02:47:45;;;;;;;26.97;18.33;;;9.00;99.90;;;;;;4990758;28;20334;-66
2022/02/03 02:50:25;;;;;;;24.17;18.47;;;8.90;99.90;;;;;;4996354;28;20222;-66
2022/02/03 02:53:16;;;;;;;28.73;18.17;;;8.90;99.90;;;;;;5029136;28;20179;-66
2022/02/03 02:56:03;;;;;;;30.13;20.67;;;8.90;99.90;;;;;;5023956;28;20299;-67
2022/02/03 02:59:32;;;;;;;31.83;19.80;;;8.90;99.90;;;;;;5011496;28;20176;-67
2022/02/03 03:30:00;;;;;;;18.20;15.90;;;8.70;99.90;;;;;;5026426;28;20578;-67
2022/02/03 03:32:39;;;;;;;15.87;14.17;;;8.60;99.90;;;;;;5017518;28;20183;-67
2022/02/03 03:35:33;;;;;;;14.67;12.77;;;8.60;99.90;;;;;;5027516;28;20718;-67
2022/02/03 03:38:00;;;;;;;20.60;15.07;;;8.50;99.90;;;;;;5024389;28;20495;-67
2022/02/03 03:40:30;;;;;;;19.43;13.80;;;8.50;99.90;;;;;;5014569;28;20176;-67
2022/02/03 03:43:11;;;;;;;17.80;13.87;;;8.60;99.90;;;;;;5014061;28;20208;-67
2022/02/03 03:45:46;;;;;;;13.60;11.30;;;8.60;99.90;;;;;;5014603;28;20188;-68
2022/02/03 03:48:16;;;;;;;14.03;12.63;;;8.50;99.90;;;;;;5026746;28;20187;-67
2022/02/03 03:50:49;;;;;;;16.07;13.73;;;8.50;99.90;;;;;;5033039;28;20633;-66
2022/02/03 03:53:24;;;;;;;11.77;10.50;;;8.50;99.90;;;;;;5021143;28;20187;-67
2022/02/03 03:56:15;;;;;;;11.80;10.70;;;8.50;99.90;;;;;;5014137;28;20681;-67
2022/02/03 05:04:21;;;;;;;11.00;8.37;;;8.80;99.90;;;;;;5052265;28;20241;-66
2022/02/03 05:13:37;;;;;;;10.03;9.23;;;8.80;99.90;;;;;;5012422;28;20208;-66
2022/02/03 05:42:50;;;;;;;11.13;10.13;;;8.70;99.90;;;;;;5051566;28;20210;-65
2022/02/03 06:14:24;;;;;;;14.30;11.60;;;9.00;99.90;;;;;;5071088;28;20185;-64
2022/02/03 06:27:36;;;;;;;13.07;11.57;;;9.00;99.90;;;;;;5060072;28;20194;-66
2022/02/03 06:30:02;;;;;;;12.80;11.60;;;9.10;99.90;;;;;;5033454;28;20216;-65
2022/02/03 06:32:28;;;;;;;13.43;11.30;;;9.10;99.90;;;;;;5062296;28;20177;-67
2022/02/03 06:34:53;;;;;;;12.80;11.20;;;9.10;99.90;;;;;;5071456;28;20616;-67
2022/02/03 06:37:20;;;;;;;13.67;12.30;;;9.10;99.90;;;;;;5061525;28;20234;-68
2022/02/03 06:39:45;;;;;;;16.83;12.57;;;9.00;99.90;;;;;;5056337;28;20182;-67
2022/02/03 06:42:11;;;;;;;14.57;12.83;;;9.00;99.90;;;;;;5071013;28;20166;-67
2022/02/03 06:44:41;;;;;;;13.33;11.93;;;9.00;99.90;;;;;;5067476;28;20175;-67
2022/02/03 06:47:16;;;;;;;15.90;11.27;;;9.00;99.90;;;;;;5051133;28;20194;-67
2022/02/03 06:52:22;;;;;;;15.13;12.20;;;9.00;99.90;;;;;;5051114;28;20252;-67
2022/02/03 06:57:19;;;;;;;15.63;12.23;;;9.00;99.90;;;;;;5071292;28;20190;-66
2022/02/03 06:59:56;;;;;;;16.53;13.27;;;9.00;99.90;;;;;;5067847;28;20167;-67
2022/02/03 07:02:24;;;;;;;15.93;13.23;;;8.90;99.90;;;;;;5050703;28;20259;-67
2022/02/03 07:04:50;;;;;;;20.60;12.90;;;8.90;99.90;;;;;;5056180;28;20247;-67
2022/02/03 07:07:17;;;;;;;14.37;12.30;;;8.80;99.90;;;;;;5074854;28;20621;-66
2022/02/03 07:09:50;;;;;;;14.27;12.63;;;8.80;99.90;;;;;;5062418;28;20670;-65
2022/02/03 07:12:16;;;;;;;13.10;11.90;;;8.80;99.90;;;;;;5074317;28;20257;-65
2022/02/03 07:14:41;;;;;;;17.67;12.90;;;8.60;99.90;;;;;;5056625;28;20617;-65
2022/02/03 07:17:07;;;;;;;15.30;12.60;;;8.60;99.90;;;;;;5054250;28;20221;-66
2022/02/03 07:19:36;;;;;;;15.53;12.60;;;8.60;99.90;;;;;;5052551;28;20185;-66
2022/02/03 07:22:02;;;;;;;14.33;12.93;;;8.60;99.90;;;;;;5044419;28;20185;-66
2022/02/03 07:24:27;;;;;;;17.43;12.80;;;8.60;99.90;;;;;;5036354;28;20648;-67
2022/02/03 07:26:53;;;;;;;17.00;12.47;;;8.60;99.90;;;;;;5063938;28;20679;-65
2022/02/03 07:29:18;;;;;;;14.90;12.87;;;8.60;99.90;;;;;;5056456;28;20544;-65
2022/02/03 07:31:44;;;;;;;14.57;12.97;;;8.60;99.90;;;;;;5048196;28;20175;-66
2022/02/03 07:34:13;;;;;;;15.20;11.53;;;8.50;99.90;;;;;;5053798;28;20316;-67
2022/02/03 07:36:39;;;;;;;16.47;11.73;;;8.50;99.90;;;;;;5061173;28;20194;-66
2022/02/03 07:39:06;;;;;;;14.17;12.67;;;8.50;99.90;;;;;;5073902;28;20189;-66
2022/02/03 07:41:32;;;;;;;14.00;12.13;;;8.50;99.90;;;;;;5054194;28;20167;-66
2022/02/03 07:43:58;;;;;;;13.87;12.47;;;8.60;99.90;;;;;;5053558;28;20670;-66
2022/02/03 07:46:24;;;;;;;12.87;11.57;;;8.50;99.90;;;;;;5037088;28;20286;-66
2022/02/03 07:48:52;;;;;;;13.40;12.00;;;8.50;99.90;;;;;;5043231;28;20174;-66
2022/02/03 07:51:18;;;;;;;16.50;12.67;;;8.60;99.90;;;;;;5071711;28;21526;-66
2022/02/03 07:53:44;;;;;;;14.90;12.20;;;8.60;99.90;;;;;;5053566;28;20548;-66
2022/02/03 07:56:09;;;;;;;19.93;13.10;;;8.60;99.90;;;;;;5054252;28;20200;-66
2022/02/03 07:58:35;;;;;;;17.60;12.73;;;8.60;99.90;;;;;;5035987;28;20198;-66
2022/02/03 08:01:01;;;;;;;14.67;12.30;;;8.60;99.90;;;;;;5053930;28;20250;-66
2022/02/03 08:03:26;;;;;;;13.87;11.47;;;8.70;99.90;;;;;;5072807;28;20292;-66
2022/02/03 08:05:59;;;;;;;13.70;12.27;;;8.70;99.90;;;;;;5073786;28;20190;-66
2022/02/03 08:08:31;;;;;;;13.73;11.83;;;8.70;99.90;;;;;;5036678;28;20175;-66
2022/02/03 08:11:01;;;;;;;17.30;13.00;;;8.70;99.90;;;;;;5053773;28;20163;-66
2022/02/03 08:13:34;;;;;;;14.90;11.37;;;8.70;99.90;;;;;;5054704;28;20697;-66
2022/02/03 08:16:08;;;;;;;15.60;11.93;;;8.70;99.90;;;;;;5053519;28;20198;-66
2022/02/03 08:18:34;;;;;;;13.30;12.00;;;8.70;99.90;;;;;;5054721;28;20178;-66
2022/02/03 08:21:04;;;;;;;13.60;11.83;;;8.70;99.90;;;;;;5065691;28;20177;-66
2022/02/03 08:31:01;;;;;;;11.97;10.63;;;9.00;99.90;;;;;;5066700;28;20265;-66
2022/02/03 08:33:28;;;;;;;10.07;8.97;;;9.00;99.90;;;;;;5068254;28;20202;-66
2022/02/03 08:35:56;;;;;;;10.03;8.97;;;9.00;99.90;;;;;;5048091;28;20202;-66
2022/02/03 08:38:34;;;;;;;10.30;9.30;;;9.00;99.90;;;;;;5055165;28;20647;-66
2022/02/03 08:41:02;;;;;;;12.40;9.63;;;8.90;99.90;;;;;;5041489;28;20201;-66
2022/02/03 08:43:32;;;;;;;10.60;9.70;;;9.00;99.90;;;;;;5052822;28;20201;-66
2022/02/03 08:46:04;;;;;;;9.70;8.80;;;8.90;99.90;;;;;;5065445;28;20226;-66
2022/02/03 08:48:31;;;;;;;10.00;9.00;;;8.90;99.90;;;;;;5066920;28;20163;-66
2022/02/03 08:50:56;;;;;;;10.37;9.33;;;8.90;99.90;;;;;;5052839;28;20167;-66
2022/02/03 08:53:30;;;;;;;12.40;10.33;;;8.90;99.90;;;;;;5071762;28;20169;-66
2022/02/03 08:56:21;;;;;;;16.93;11.03;;;8.90;99.90;;;;;;5072656;28;20219;-66
2022/02/03 09:39:13;;;;;;;10.23;9.43;;;9.00;99.90;;;;;;5050938;28;20632;-66
2022/02/03 09:58:12;;;;;;;11.73;10.33;;;8.80;99.90;;;;;;5009721;28;20184;-67
2022/02/03 10:00:51;;;;;;;13.73;11.07;;;8.80;99.90;;;;;;5061282;28;20198;-66
2022/02/03 10:08:28;;;;;;;12.00;10.80;;;8.80;99.90;;;;;;5071345;28;20170;-66
2022/02/03 10:11:18;;;;;;;14.10;11.97;;;8.80;99.90;;;;;;5057684;28;20171;-66
2022/02/03 10:13:55;;;;;;;13.80;11.93;;;8.80;99.90;;;;;;5051211;28;20605;-67
2022/02/03 10:16:35;;;;;;;13.43;11.93;;;8.80;99.90;;;;;;5110229;22;20321;-64
2022/02/03 10:19:15;;;;;;;14.77;12.07;;;8.70;99.90;;;;;;5046040;28;20186;-65
2022/02/03 10:21:43;;;;;;;13.67;11.17;;;8.70;99.90;;;;;;5051487;28;20575;-66
2022/02/03 10:24:15;;;;;;;14.00;12.60;;;8.60;99.90;;;;;;5035828;28;20215;-65
2022/02/03 10:26:48;;;;;;;14.67;11.73;;;8.60;99.90;;;;;;5031272;28;20184;-65
2022/02/03 10:29:19;;;;;;;14.33;12.83;;;8.70;99.90;;;;;;5016292;28;20183;-65
2022/02/03 10:31:46;;;;;;;13.53;12.13;;;8.70;99.90;;;;;;5011688;28;20171;-65
2022/02/03 10:34:16;;;;;;;12.10;11.10;;;8.70;99.90;;;;;;5025416;28;20218;-65
2022/02/03 10:45:54;;;;;;;12.97;11.20;;;8.60;99.90;;;;;;5035506;28;20182;-65
2022/02/03 10:58:46;;;;;;;11.60;10.50;;;8.50;99.90;;;;;;5034340;28;20185;-66
2022/02/03 11:09:48;;;;;;;9.70;8.90;;;8.50;99.90;;;;;;5035027;28;20179;-65
2022/02/03 11:12:21;;;;;;;10.50;9.60;;;8.60;99.90;;;;;;5023444;28;20208;-66
2022/02/03 11:14:47;;;;;;;10.33;9.50;;;8.50;99.90;;;;;;5013697;28;20531;-65
2022/02/03 11:17:16;;;;;;;10.40;9.67;;;8.60;99.90;;;;;;5025024;28;20219;-65
2022/02/03 11:19:48;;;;;;;11.30;10.30;;;8.60;99.90;;;;;;5033580;28;20179;-66
2022/02/03 11:22:21;;;;;;;10.77;9.80;;;8.60;99.90;;;;;;5022135;28;20188;-65
2022/02/03 11:24:56;;;;;;;10.90;9.90;;;8.60;99.90;;;;;;5014992;28;20183;-64
2022/02/03 11:27:35;;;;;;;9.67;8.97;;;8.60;99.90;;;;;;5025263;28;20281;-65
2022/02/03 11:31:23;;;;;;;9.80;9.10;;;8.60;99.90;;;;;;5026596;28;20215;-65
2022/02/03 11:33:34;;;;;;;9.47;8.77;;;8.60;99.90;;;;;;5006015;28;20298;-65
2022/02/03 12:01:14;;;;;;;11.17;10.27;;;8.40;99.90;;;;;;5014572;28;20199;-65
2022/02/03 12:20:34;;;;;;;10.17;9.47;;;8.30;99.90;;;;;;5014189;28;20684;-65
2022/02/03 12:23:08;;;;;;;9.70;9.10;;;8.20;99.90;;;;;;5014621;28;20669;-65
2022/02/03 12:25:54;;;;;;;10.13;9.33;;;8.20;99.90;;;;;;5033809;28;20705;-65
2022/02/03 12:38:48;;;;;;;10.13;9.43;;;8.30;99.90;;;;;;5013564;28;20206;-66
2022/02/03 12:41:36;;;;;;;9.93;9.13;;;8.30;99.90;;;;;;5015591;28;20170;-65
2022/02/03 12:44:12;;;;;;;9.60;9.00;;;8.20;99.90;;;;;;5032780;28;20207;-65
2022/02/03 12:46:37;;;;;;;9.80;9.20;;;8.20;99.90;;;;;;5026921;28;20191;-65
2022/02/03 12:49:04;;;;;;;10.50;9.70;;;8.20;99.90;;;;;;5013078;28;20641;-65
2022/02/03 12:51:29;;;;;;;10.07;9.43;;;8.20;99.90;;;;;;5016014;28;20534;-65
2022/02/03 12:53:55;;;;;;;9.60;9.00;;;8.20;99.90;;;;;;5032493;28;20239;-65
2022/02/03 12:56:27;;;;;;;9.70;9.00;;;8.20;99.90;;;;;;5013880;28;20200;-66
2022/02/03 12:58:59;;;;;;;9.73;9.13;;;8.10;99.90;;;;;;5013140;28;20177;-65
2022/02/03 13:01:34;;;;;;;9.33;8.73;;;8.10;99.90;;;;;;5029561;28;20633;-65
2022/02/03 13:04:07;;;;;;;10.97;10.10;;;8.00;99.90;;;;;;5032559;28;20197;-64
2022/02/03 13:06:33;;;;;;;13.20;12.17;;;8.00;99.90;;;;;;5013128;28;20242;-64
2022/02/03 13:09:02;;;;;;;13.67;12.37;;;7.90;99.90;;;;;;5013053;28;20177;-65
2022/02/03 13:11:37;;;;;;;10.70;9.77;;;7.90;99.90;;;;;;5030743;28;20268;-64
2022/02/03 13:16:57;;;;;;;9.20;8.47;;;7.80;99.90;;;;;;5012609;28;20305;-64
2022/02/03 13:19:41;;;;;;;9.90;9.10;;;7.80;99.90;;;;;;5012821;28;20188;-65
2022/02/03 13:22:17;;;;;;;10.27;9.33;;;7.70;99.90;;;;;;5012452;28;20176;-65
2022/02/03 13:27:50;;;;;;;10.57;9.20;;;7.60;99.90;;;;;;5013374;28;20196;-65
2022/02/03 13:30:49;;;;;;;9.53;8.73;;;7.50;99.90;;;;;;5012648;28;20306;-64
2022/02/03 13:33:22;;;;;;;9.73;8.93;;;7.50;99.90;;;;;;5018208;28;20258;-65
2022/02/03 13:38:57;;;;;;;9.47;8.73;;;7.40;99.90;;;;;;5019665;28;20207;-64
2022/02/03 13:41:12;;;;;;;10.03;9.23;;;7.40;99.90;;;;;;5010301;28;20176;-66
2022/02/03 13:43:39;;;;;;;9.47;8.77;;;7.40;99.90;;;;;;5018846;28;20211;-64
2022/02/03 13:46:07;;;;;;;11.50;10.10;;;7.40;99.90;;;;;;5030702;28;20187;-65
2022/02/03 13:48:32;;;;;;;10.33;9.33;;;7.50;99.90;;;;;;5017291;28;20230;-64
2022/02/03 13:51:01;;;;;;;11.83;10.83;;;7.50;99.90;;;;;;5014331;28;20180;-64
2022/02/03 14:21:29;;;;;;;9.23;8.50;;;7.90;99.90;;;;;;5031370;28;20171;-65
2022/02/03 14:29:12;;;;;;;9.50;8.80;;;8.00;99.90;;;;;;5011736;28;20259;-65
2022/02/03 14:31:39;;;;;;;9.73;8.93;;;8.00;99.90;;;;;;5011897;28;20172;-65
2022/02/03 14:34:16;;;;;;;9.90;9.10;;;8.00;99.90;;;;;;5011180;28;20176;-66
2022/02/03 14:36:47;;;;;;;9.77;9.10;;;8.00;99.90;;;;;;5011635;28;20660;-65
2022/02/03 14:39:17;;;;;;;13.40;12.50;;;8.10;99.90;;;;;;5026742;28;20275;-65
2022/02/03 14:41:48;;;;;;;11.33;10.50;;;8.10;99.90;;;;;;5031210;28;20183;-65
2022/02/03 14:44:17;;;;;;;9.40;8.80;;;8.10;99.90;;;;;;5030808;28;20222;-65
2022/02/03 14:46:44;;;;;;;10.17;9.40;;;8.10;99.90;;;;;;5010446;28;20200;-65
2022/02/03 14:49:10;;;;;;;11.17;10.17;;;8.10;99.90;;;;;;5026544;28;20180;-65
2022/02/03 14:52:09;;;;;;;10.13;9.43;;;8.00;99.90;;;;;;5030060;28;20171;-65
2022/02/03 14:59:35;;;;;;;11.07;10.03;;;7.90;99.90;;;;;;5029373;28;20190;-66
2022/02/03 15:02:07;;;;;;;10.83;10.07;;;7.90;99.90;;;;;;5029279;28;20179;-66
2022/02/03 15:04:34;;;;;;;10.97;10.10;;;7.90;99.90;;;;;;5014162;28;20218;-66
2022/02/03 15:07:03;;;;;;;9.97;9.27;;;7.90;99.90;;;;;;5009533;28;20192;-66
2022/02/03 15:09:51;;;;;;;10.83;9.70;;;7.90;99.90;;;;;;5024911;28;20179;-65
2022/02/03 15:12:37;;;;;;;10.10;9.40;;;7.90;99.90;;;;;;5029444;28;20199;-65
2022/02/03 15:15:04;;;;;;;11.07;10.27;;;8.00;99.90;;;;;;5010038;28;20665;-65
2022/02/03 15:17:33;;;;;;;11.67;10.83;;;8.00;99.90;;;;;;5024951;28;20559;-65
2022/02/03 15:19:59;;;;;;;10.50;9.60;;;8.00;99.90;;;;;;5029460;28;20168;-65
2022/02/03 15:22:25;;;;;;;9.17;8.47;;;8.00;99.90;;;;;;5016294;28;20176;-65
2022/02/03 15:24:51;;;;;;;9.80;9.00;;;8.10;99.90;;;;;;5011682;28;20164;-66
2022/02/03 15:27:17;;;;;;;10.77;8.80;;;8.10;99.90;;;;;;5026992;28;20754;-66
2022/02/03 15:29:46;;;;;;;10.10;9.30;;;8.10;99.90;;;;;;5034721;28;20656;-67
2022/02/03 15:32:12;;;;;;;10.00;9.00;;;8.10;99.90;;;;;;5021594;28;20211;-66
2022/02/03 15:34:38;;;;;;;10.37;9.57;;;8.10;99.90;;;;;;5013773;28;20175;-65
2022/02/03 15:37:14;;;;;;;10.37;9.57;;;8.10;99.90;;;;;;5027850;28;20203;-65
2022/02/03 15:39:52;;;;;;;12.17;9.97;;;8.10;99.90;;;;;;5034639;28;20592;-65
2022/02/03 15:42:26;;;;;;;10.30;9.50;;;8.10;99.90;;;;;;5016816;28;20179;-65
2022/02/03 15:44:54;;;;;;;10.33;9.50;;;8.00;99.90;;;;;;5014478;28;20533;-66
2022/02/03 15:47:36;;;;;;;11.17;10.37;;;8.10;99.90;;;;;;5028839;28;20768;-66
2022/02/03 16:14:07;;;;;;;10.13;9.17;;;7.70;99.90;;;;;;5014483;28;20198;-65
2022/02/03 16:19:04;;;;;;;11.97;10.23;;;7.60;99.90;;;;;;5072733;28;20535;-68
2022/02/03 16:21:37;;;;;;;11.53;10.33;;;7.60;99.90;;;;;;5073557;28;20177;-68
2022/02/03 16:24:22;;;;;;;10.53;9.43;;;7.60;99.90;;;;;;5053333;28;20221;-67
2022/02/03 16:50:18;;;;;;;11.57;10.50;;;7.60;99.90;;;;;;5053207;28;20579;-67
2022/02/03 16:54:34;;;;;;;11.50;9.80;;;7.50;99.90;;;;;;5061240;28;20269;-67
2022/02/03 16:57:11;;;;;;;11.67;10.60;;;7.60;99.90;;;;;;5052472;28;20281;-67
2022/02/03 16:59:44;;;;;;;11.73;10.53;;;7.50;99.90;;;;;;5063773;28;20243;-67
2022/02/03 17:02:09;;;;;;;12.07;10.73;;;7.40;99.90;;;;;;5072445;28;20170;-67
2022/02/03 17:04:35;;;;;;;11.47;10.47;;;7.40;99.90;;;;;;5061756;28;20217;-68
2022/02/03 17:07:01;;;;;;;12.73;10.13;;;7.40;99.90;;;;;;5058180;28;20205;-67
2022/02/03 17:09:26;;;;;;;13.07;11.83;;;7.40;99.90;;;;;;5072636;28;20173;-67
2022/02/03 17:11:52;;;;;;;11.93;10.00;;;7.40;99.90;;;;;;5067182;28;20187;-68
2022/02/03 17:14:17;;;;;;;13.83;10.93;;;7.40;99.90;;;;;;5056047;28;20182;-68
2022/02/03 17:16:43;;;;;;;14.20;10.73;;;7.40;99.90;;;;;;5069273;28;20210;-67
2022/02/03 17:19:09;;;;;;;12.07;11.00;;;7.50;99.90;;;;;;5052606;28;20257;-67
2022/02/03 17:21:34;;;;;;;14.23;13.00;;;7.50;99.90;;;;;;5035817;28;20201;-68
2022/02/03 17:24:01;;;;;;;13.80;12.70;;;7.50;99.90;;;;;;5072000;28;20821;-68
2022/02/03 17:26:38;;;;;;;15.60;14.10;;;7.60;99.90;;;;;;5071857;28;20166;-67
2022/02/03 17:29:19;;;;;;;17.50;15.67;;;7.60;99.90;;;;;;5052025;28;20174;-67
2022/02/03 17:54:12;;;;;;;16.50;14.93;;;7.60;99.90;;;;;;5071469;28;20193;-67
2022/02/03 18:05:32;;;;;;;15.50;14.00;;;7.60;99.90;;;;;;5060013;28;20570;-68
2022/02/03 18:50:13;;;;;;;15.63;13.77;;;7.40;99.90;;;;;;5071397;28;20223;-67
2022/02/03 18:52:54;;;;;;;20.80;14.40;;;7.40;99.90;;;;;;5061055;28;20530;-67
2022/02/03 18:55:29;;;;;;;14.83;13.23;;;7.40;99.90;;;;;;5033560;28;20167;-67
2022/02/03 18:58:05;;;;;;;14.13;12.33;;;7.40;99.90;;;;;;5062278;28;20261;-67
2022/02/03 19:01:03;;;;;;;15.10;13.50;;;7.40;99.90;;;;;;5073181;28;20188;-67
2022/02/03 20:08:08;;;;;;;15.07;13.07;;;7.50;99.90;;;;;;5063491;28;20283;-67
2022/02/03 20:10:38;;;;;;;20.13;15.70;;;7.40;99.90;;;;;;5073591;28;20241;-67
2022/02/03 20:13:04;;;;;;;17.87;14.40;;;7.40;99.90;;;;;;5062256;28;20225;-67
2022/02/03 20:15:36;;;;;;;17.23;14.03;;;7.40;99.90;;;;;;5053793;28;20207;-67
2022/02/03 20:18:03;;;;;;;16.87;14.17;;;7.40;99.90;;;;;;5063280;28;20228;-67
2022/02/03 20:20:29;;;;;;;16.50;14.27;;;7.40;99.90;;;;;;5073893;28;20166;-67
2022/02/03 20:22:55;;;;;;;18.37;13.77;;;7.40;99.90;;;;;;5064537;28;20678;-66
2022/02/03 20:25:20;;;;;;;28.40;17.73;;;7.40;99.90;;;;;;5053571;28;20179;-66
2022/02/03 20:27:46;;;;;;;24.90;15.70;;;7.40;99.90;;;;;;5059865;28;20208;-66
2022/02/03 20:30:13;;;;;;;20.50;15.70;;;7.30;99.90;;;;;;5053242;28;20508;-66
2022/02/03 20:32:39;;;;;;;21.10;17.33;;;7.30;99.90;;;;;;5053297;28;20167;-66
2022/02/03 20:35:06;;;;;;;17.87;15.57;;;7.30;99.90;;;;;;5035568;28;20212;-66
2022/02/03 20:37:32;;;;;;;19.23;14.80;;;7.30;99.90;;;;;;5073244;28;20198;-66
2022/02/03 20:39:57;;;;;;;23.53;17.17;;;7.30;99.90;;;;;;5073637;28;20170;-67
2022/02/03 20:42:23;;;;;;;16.60;14.70;;;7.30;99.90;;;;;;5053675;28;20556;-67
2022/02/03 20:44:50;;;;;;;27.70;17.90;;;7.30;99.90;;;;;;5053085;28;20202;-67
2022/02/03 20:47:16;;;;;;;17.83;15.83;;;7.30;99.90;;;;;;5070088;28;20202;-67
2022/02/03 20:49:42;;;;;;;20.63;15.67;;;7.30;99.90;;;;;;5073071;28;20205;-67
2022/02/03 20:52:08;;;;;;;25.47;18.93;;;7.30;99.90;;;;;;5056768;28;20697;-66
2022/02/03 20:54:34;;;;;;;19.03;15.33;;;7.30;99.90;;;;;;5053269;28;20206;-67
2022/02/03 20:57:00;;;;;;;20.77;17.80;;;7.30;99.90;;;;;;5062475;28;20700;-67
2022/02/03 20:59:31;;;;;;;18.87;16.93;;;7.30;99.90;;;;;;5073120;28;20170;-67
2022/02/03 21:02:00;;;;;;;21.20;15.87;;;7.20;99.90;;;;;;5059093;28;20183;-67
2022/02/03 21:04:36;;;;;;;19.40;16.40;;;7.20;99.90;;;;;;5052686;28;20291;-67
2022/02/03 21:07:05;;;;;;;18.70;16.23;;;7.10;99.90;;;;;;5065563;28;20209;-67
2022/02/03 21:09:30;;;;;;;25.03;16.27;;;7.10;99.90;;;;;;5072675;28;20189;-67
2022/02/03 21:11:56;;;;;;;23.43;17.00;;;7.00;99.90;;;;;;5059935;28;20179;-67
2022/02/03 21:14:22;;;;;;;19.27;15.67;;;7.00;99.90;;;;;;5052612;28;20210;-67
2022/02/03 21:16:51;;;;;;;17.80;16.00;;;7.00;99.90;;;;;;5062341;28;20615;-67
2022/02/03 21:19:17;;;;;;;20.70;16.20;;;7.00;99.90;;;;;;5072377;28;20170;-67
2022/02/03 21:21:43;;;;;;;17.90;14.87;;;7.00;99.90;;;;;;5063064;28;20201;-67
2022/02/03 21:24:08;;;;;;;20.97;16.60;;;7.00;99.90;;;;;;5060172;28;20571;-67
2022/02/03 21:26:38;;;;;;;26.93;17.80;;;7.00;99.90;;;;;;5064744;28;20179;-67
2022/02/03 21:29:05;;;;;;;21.57;17.17;;;7.00;99.90;;;;;;5052057;28;20180;-67
2022/02/03 21:31:30;;;;;;;21.07;16.20;;;7.10;99.90;;;;;;5058428;28;20174;-67
2022/02/03 21:33:57;;;;;;;20.90;16.80;;;7.10;99.90;;;;;;5053467;28;20181;-67
2022/02/03 21:36:25;;;;;;;17.93;16.03;;;7.10;99.90;;;;;;5042149;28;20194;-67
2022/02/03 21:38:51;;;;;;;17.60;15.57;;;7.10;99.90;;;;;;5034090;28;20194;-67
2022/02/03 21:41:17;;;;;;;16.53;14.80;;;7.10;99.90;;;;;;5044122;28;20296;-66
2022/02/03 21:43:44;;;;;;;18.70;16.70;;;7.10;99.90;;;;;;5071507;28;20201;-67
2022/02/03 21:46:10;;;;;;;16.30;14.70;;;7.00;99.90;;;;;;5062942;28;20190;-67
2022/02/03 21:48:44;;;;;;;16.50;14.73;;;7.10;99.90;;;;;;5051871;28;20586;-67
2022/02/03 21:51:10;;;;;;;15.90;14.23;;;7.10;99.90;;;;;;5041981;28;20197;-67
2022/02/03 21:53:36;;;;;;;15.97;14.37;;;7.00;99.90;;;;;;5071643;28;20170;-67
2022/02/03 21:56:03;;;;;;;20.60;15.47;;;7.10;99.90;;;;;;5067925;28;20315;-67
2022/02/03 21:58:28;;;;;;;16.93;14.73;;;7.10;99.90;;;;;;5071756;28;20235;-66
2022/02/03 22:00:56;;;;;;;16.57;14.83;;;7.10;99.90;;;;;;5066279;28;20182;-67
2022/02/03 22:03:24;;;;;;;28.07;17.30;;;7.10;99.90;;;;;;5051795;28;20214;-66
2022/02/03 22:05:51;;;;;;;17.10;15.23;;;7.10;99.90;;;;;;5071791;28;20170;-67
2022/02/03 22:08:17;;;;;;;18.40;15.17;;;7.10;99.90;;;;;;5071642;28;20194;-66
2022/02/03 22:10:43;;;;;;;24.50;18.03;;;7.10;99.90;;;;;;5070692;28;20662;-67
2022/02/03 22:13:08;;;;;;;17.33;15.53;;;7.20;99.90;;;;;;5071310;28;20202;-67
2022/02/03 22:15:34;;;;;;;15.90;14.03;;;7.10;99.90;;;;;;5053582;28;20551;-66
2022/02/03 22:18:00;;;;;;;17.10;15.03;;;7.10;99.90;;;;;;5052016;28;20230;-67
2022/02/03 22:20:31;;;;;;;20.60;15.10;;;7.10;99.90;;;;;;5049638;28;20189;-67
2022/02/03 22:23:21;;;;;;;17.57;15.17;;;7.00;99.90;;;;;;5071281;28;20194;-68
2022/02/03 22:26:37;;;;;;;23.27;15.17;;;7.00;99.90;;;;;;5052768;28;20573;-67
2022/02/03 22:45:16;;;;;;;20.43;16.03;;;7.00;99.90;;;;;;5071278;28;20197;-67
2022/02/03 22:50:17;;;;;;;22.97;17.63;;;7.10;99.90;;;;;;5051435;28;20171;-66
2022/02/03 22:52:43;;;;;;;21.63;17.37;;;7.10;99.90;;;;;;5057858;28;20694;-67
2022/02/03 22:55:13;;;;;;;21.00;17.00;;;7.10;99.90;;;;;;5071063;28;20174;-66
2022/02/03 22:57:42;;;;;;;19.43;15.47;;;7.10;99.90;;;;;;5064867;28;20683;-66
2022/02/03 23:00:20;;;;;;;21.70;18.83;;;7.10;99.90;;;;;;5052781;28;20179;-66
2022/02/03 23:02:45;;;;;;;26.67;18.33;;;7.20;99.90;;;;;;5070823;28;20194;-66
2022/02/03 23:05:17;;;;;;;23.03;17.23;;;7.20;99.90;;;;;;5069153;28;20666;-65
2022/02/03 23:10:17;;;;;;;18.03;16.20;;;7.20;99.90;;;;;;5052041;28;20171;-67
2022/02/03 23:18:09;;;;;;;18.10;16.10;;;7.30;99.90;;;;;;5051021;28;20620;-67
2022/02/03 23:21:00;;;;;;;17.30;13.67;;;7.30;99.90;;;;;;5054263;28;20166;-67
2022/02/03 23:23:26;;;;;;;22.10;15.13;;;7.30;99.90;;;;;;5070535;28;20198;-66
2022/02/03 23:25:51;;;;;;;17.77;15.90;;;7.30;99.90;;;;;;5047504;28;20259;-67
2022/02/03 23:28:38;;;;;;;16.70;14.90;;;7.40;99.90;;;;;;5051119;28;20191;-67
2022/02/03 23:31:03;;;;;;;15.60;14.07;;;7.40;99.90;;;;;;5070340;28;20206;-67
2022/02/03 23:33:31;;;;;;;15.23;13.73;;;7.40;99.90;;;;;;5068913;28;20217;-67
2022/02/03 23:35:56;;;;;;;15.90;14.20;;;7.40;99.90;;;;;;5070740;28;20177;-67
2022/02/03 23:46:30;;;;;;;14.97;13.67;;;7.50;99.90;;;;;;5072262;28;20170;-67
